createdAt,value
2022-10-19T00:04:24.484Z,5
2022-10-19T00:10:35.182Z,5
2022-10-19T00:16:37.629Z,5
2022-10-19T00:22:48.271Z,5
2022-10-19T00:28:59.039Z,6
2022-10-19T00:35:09.658Z,5
2022-10-19T00:40:22.552Z,4
2022-10-19T00:46:33.197Z,5
2022-10-19T00:52:43.901Z,5
2022-10-19T00:58:54.529Z,4
2022-10-19T01:05:05.193Z,5
2022-10-19T01:11:15.885Z,6
2022-10-19T01:17:18.319Z,6
2022-10-19T01:22:23.061Z,6
2022-10-19T01:28:33.928Z,6
2022-10-19T01:34:44.409Z,5
2022-10-19T01:40:55.051Z,5
2022-10-19T01:47:05.761Z,5
2022-10-19T01:53:16.373Z,6
2022-10-19T01:59:27.107Z,6
2022-10-19T02:05:37.749Z,7
2022-10-19T02:11:49.740Z,6
2022-10-19T02:17:50.854Z,6
2022-10-19T02:24:01.541Z,6
2022-10-19T02:30:12.207Z,6
2022-10-19T02:36:22.847Z,6
2022-10-19T02:42:33.841Z,5
2022-10-19T02:48:44.179Z,5
2022-10-19T02:54:54.856Z,6
2022-10-19T03:01:05.560Z,5
2022-10-19T03:07:16.205Z,5
2022-10-19T03:12:29.111Z,5
2022-10-19T03:18:31.587Z,5
2022-10-19T03:24:42.248Z,9
2022-10-19T03:30:52.922Z,6
2022-10-19T03:37:03.592Z,6
2022-10-19T03:43:14.244Z,5
2022-10-19T03:49:24.894Z,5
2022-10-19T03:55:35.607Z,5
2022-10-19T04:01:46.250Z,5
2022-10-19T04:07:56.887Z,4
2022-10-19T04:14:07.595Z,5
2022-10-19T04:20:10.027Z,6
2022-10-19T04:26:20.696Z,5
2022-10-19T04:32:31.393Z,5
2022-10-19T04:38:42.031Z,5
2022-10-19T04:44:52.733Z,5
2022-10-19T04:52:17.605Z,6
2022-10-19T04:58:28.154Z,5
2022-10-19T05:04:41.841Z,5
2022-10-19T05:10:49.519Z,5
2022-10-19T05:17:00.174Z,6
2022-10-19T05:23:06.311Z,5
2022-10-19T05:29:21.536Z,6
2022-10-19T05:35:32.164Z,8
2022-10-19T05:40:45.086Z,11
2022-10-19T05:46:55.782Z,17
2022-10-19T05:53:06.403Z,13
2022-10-19T05:59:17.103Z,11
2022-10-19T06:05:27.776Z,13
2022-10-19T06:11:38.422Z,9
2022-10-19T06:17:49.105Z,19
2022-10-19T06:23:51.590Z,14
2022-10-19T06:30:02.269Z,13
2022-10-19T06:36:12.880Z,13
2022-10-19T06:42:23.582Z,10
2022-10-19T06:48:34.228Z,8
2022-10-19T06:54:44.893Z,6
2022-10-19T07:00:55.632Z,5
2022-10-19T07:07:06.193Z,5
2022-10-19T07:13:16.868Z,5
2022-10-19T07:20:33.497Z,4
2022-10-19T07:26:44.160Z,5
2022-10-19T07:32:54.808Z,5
2022-10-19T07:39:05.508Z,5
2022-10-19T07:45:16.159Z,4
2022-10-19T07:51:26.818Z,4
2022-10-19T07:57:37.486Z,4
2022-10-19T08:09:01.158Z,2
2022-10-19T08:15:11.763Z,3
2022-10-19T08:22:28.318Z,3
2022-10-19T08:28:39.033Z,4
2022-10-19T08:34:49.700Z,4
2022-10-19T08:41:00.328Z,4
2022-10-19T08:47:12.441Z,4
2022-10-19T08:53:21.705Z,4
2022-10-19T08:59:32.310Z,4
2022-10-19T09:05:42.977Z,4
2022-10-19T09:11:53.712Z,5
2022-10-19T09:18:04.306Z,5
2022-10-19T09:24:06.790Z,4
2022-10-19T09:30:17.481Z,4
2022-10-19T09:36:49.422Z,4
2022-10-19T09:41:32.870Z,4
2022-10-19T09:47:43.547Z,4
2022-10-19T09:53:54.190Z,6
2022-10-19T10:00:04.877Z,3
2022-10-19T10:06:15.538Z,3
2022-10-19T10:12:26.199Z,3
2022-10-19T10:18:36.878Z,3
2022-10-19T10:24:39.342Z,3
2022-10-19T10:30:50.020Z,3
2022-10-19T10:37:00.670Z,3
2022-10-19T10:42:13.592Z,2
2022-10-19T10:48:24.236Z,2
2022-10-19T10:54:34.928Z,2
2022-10-19T11:00:45.610Z,3
2022-10-19T11:06:56.253Z,2
2022-10-19T11:13:06.932Z,2
2022-10-19T11:19:17.625Z,2
2022-10-19T11:25:20.034Z,2
2022-10-19T11:31:30.719Z,2
2022-10-19T11:37:49.532Z,2
2022-10-19T11:43:52.065Z,2
2022-10-19T11:50:02.874Z,3
2022-10-19T11:56:13.431Z,2
2022-10-19T12:02:24.225Z,3
2022-10-19T12:08:34.781Z,2
2022-10-19T12:14:45.444Z,3
2022-10-19T12:22:01.994Z,2
2022-10-19T12:28:12.647Z,3
2022-10-19T12:34:23.371Z,4
2022-10-19T12:40:33.981Z,4
2022-10-19T12:46:48.411Z,3
2022-10-19T12:52:55.342Z,3
2022-10-19T12:59:05.978Z,3
2022-10-19T13:05:16.671Z,3
2022-10-19T13:10:29.604Z,3
2022-10-19T13:16:40.238Z,3
2022-10-19T13:22:50.895Z,4
2022-10-19T13:28:53.460Z,3
2022-10-19T13:35:04.069Z,3
2022-10-19T13:41:14.737Z,4
2022-10-19T13:46:19.447Z,3
2022-10-19T13:52:30.101Z,3
2022-10-19T13:58:40.758Z,4
2022-10-19T14:04:51.517Z,3
2022-10-19T14:11:02.117Z,3
2022-10-19T14:17:12.832Z,3
2022-10-19T14:23:15.283Z,3
2022-10-19T14:29:25.931Z,3
2022-10-19T14:35:36.605Z,3
2022-10-19T14:41:47.287Z,2
2022-10-19T14:47:57.916Z,3
2022-10-19T14:54:08.582Z,4
2022-10-19T15:00:19.355Z,3
2022-10-19T15:06:29.906Z,3
2022-10-19T15:12:40.618Z,3
2022-10-19T15:18:51.388Z,3
2022-10-19T15:24:53.709Z,3
2022-10-19T15:31:04.406Z,2
2022-10-19T15:37:15.207Z,3
2022-10-19T15:42:28.009Z,3
2022-10-19T15:48:38.644Z,3
2022-10-19T15:54:49.339Z,2
2022-10-19T16:00:59.964Z,3
2022-10-19T16:07:10.637Z,3
2022-10-19T16:13:21.338Z,3
2022-10-19T16:19:31.993Z,3
2022-10-19T16:25:34.462Z,3
2022-10-19T16:31:45.146Z,7
2022-10-19T16:37:55.838Z,7
2022-10-19T16:44:06.459Z,4
2022-10-19T16:50:17.147Z,5
2022-10-19T16:56:27.825Z,3
2022-10-19T17:02:41.812Z,3
2022-10-19T17:15:23.822Z,3
2022-10-19T17:21:10.473Z,3
2022-10-19T17:27:12.964Z,3
2022-10-19T17:33:23.583Z,3
2022-10-19T17:39:34.240Z,3
2022-10-19T17:45:44.952Z,4
2022-10-19T17:51:55.611Z,4
2022-10-19T17:57:00.303Z,4
2022-10-19T18:03:11.066Z,3
2022-10-19T18:09:38.053Z,4
2022-10-19T18:15:48.699Z,4
2022-10-19T18:21:59.362Z,5
2022-10-19T18:28:01.862Z,4
2022-10-19T18:34:12.494Z,4
2022-10-19T18:40:23.188Z,3
2022-10-19T18:46:33.823Z,3
2022-10-19T18:52:44.496Z,2
2022-10-19T18:58:55.208Z,3
2022-10-19T19:05:05.837Z,3
2022-10-19T19:11:16.582Z,3
2022-10-19T19:17:27.195Z,4
2022-10-19T19:23:37.836Z,4
2022-10-19T19:29:40.284Z,4
2022-10-19T19:35:51.041Z,4
2022-10-19T19:42:01.657Z,4
2022-10-19T19:48:12.294Z,4
2022-10-19T19:54:22.977Z,3
2022-10-19T20:00:33.627Z,3
2022-10-19T20:06:44.285Z,3
2022-10-19T20:12:55.027Z,3
2022-10-19T20:19:05.645Z,4
2022-10-19T20:25:16.302Z,4
2022-10-19T20:31:18.867Z,3
2022-10-19T20:37:29.573Z,3
2022-10-19T20:42:42.371Z,4
2022-10-19T20:48:53.059Z,4
2022-10-19T20:56:17.825Z,3
2022-10-19T21:02:28.475Z,4
2022-10-19T21:08:39.286Z,4
2022-10-19T21:14:49.824Z,5
2022-10-19T21:21:00.504Z,6
2022-10-19T21:27:11.167Z,6
2022-10-19T21:33:13.624Z,7
2022-10-19T21:39:24.261Z,6
2022-10-19T21:45:34.993Z,5
2022-10-19T21:51:45.596Z,8
2022-10-19T21:57:56.302Z,6
2022-10-19T22:03:01.143Z,6
2022-10-19T22:10:25.857Z,6
2022-10-19T22:16:36.485Z,7
2022-10-19T22:22:50.243Z,7
2022-10-19T22:28:49.617Z,7
2022-10-19T22:35:00.279Z,7
2022-10-19T22:41:10.958Z,8
2022-10-19T22:47:21.605Z,7
2022-10-19T22:53:32.292Z,7
2022-10-19T22:59:42.973Z,7
2022-10-19T23:05:53.615Z,7
2022-10-19T23:11:06.543Z,7
2022-10-19T23:17:17.235Z,7
2022-10-19T23:23:27.904Z,7
2022-10-19T23:29:30.329Z,6
2022-10-19T23:35:41.035Z,7
2022-10-19T23:41:51.663Z,6
2022-10-19T23:48:02.318Z,6
2022-10-19T23:54:13.029Z,6
